Time;durP1;ratioP1;P1;durP2;ratioP2;P2;SDS_P1;SDS_P2;PMS_P1;PMS_P2;Temp;Humidity;BMP_temperature;BMP_pressure;BME280_temperature;BME280_humidity;BME280_pressure;Samples;Min_cycle;Max_cycle;Signal;HPM_P1;HPM_P2
2023/11/06 00:00:38;;;;;;;2.13;1.00;;;9.60;57.90;;;;;;5059698;28;20213;-84
2023/11/06 00:03:10;;;;;;;1.58;0.95;;;9.60;57.40;;;;;;5029812;28;20237;-84
2023/11/06 00:05:37;;;;;;;2.25;0.98;;;9.70;57.90;;;;;;5027200;28;20198;-83
2023/11/06 00:08:05;;;;;;;1.70;1.08;;;9.70;56.70;;;;;;5030279;28;20207;-83
2023/11/06 00:10:32;;;;;;;0.82;0.80;;;9.70;55.60;;;;;;5018954;28;20199;-83
2023/11/06 00:12:59;;;;;;;0.73;0.73;;;9.70;55.60;;;;;;5030451;28;20210;-84
2023/11/06 00:15:26;;;;;;;1.38;0.70;;;9.70;56.00;;;;;;5020266;28;20249;-83
2023/11/06 00:17:55;;;;;;;3.03;0.90;;;9.70;56.00;;;;;;5028734;28;20213;-84
2023/11/06 00:20:23;;;;;;;2.33;0.88;;;9.60;57.00;;;;;;5031059;28;20527;-83
2023/11/06 00:22:50;;;;;;;2.17;0.80;;;9.60;57.00;;;;;;5028326;28;20202;-83
2023/11/06 00:25:17;;;;;;;1.13;0.70;;;9.60;58.40;;;;;;5033231;28;20198;-83
2023/11/06 00:27:43;;;;;;;1.90;1.00;;;9.70;57.60;;;;;;5030644;28;20570;-83
2023/11/06 00:30:11;;;;;;;2.22;0.80;;;9.60;58.60;;;;;;5029777;28;21094;-83
2023/11/06 00:32:37;;;;;;;3.38;0.88;;;9.60;58.60;;;;;;5030680;28;20205;-83
2023/11/06 00:35:04;;;;;;;30.63;24.70;;;9.70;58.00;;;;;;5030398;28;20187;-83
2023/11/06 00:37:33;;;;;;;1.20;0.80;;;9.80;58.90;;;;;;5029851;28;20276;-84
2023/11/06 00:39:59;;;;;;;2.67;1.40;;;9.90;59.30;;;;;;5030663;28;20202;-83
2023/11/06 00:42:26;;;;;;;2.05;0.70;;;9.90;59.00;;;;;;5031332;28;20187;-83
2023/11/06 00:44:53;;;;;;;1.88;0.70;;;9.80;59.20;;;;;;5030789;28;20194;-83
2023/11/06 00:47:20;;;;;;;5.45;1.27;;;9.90;60.00;;;;;;5026035;28;20210;-83
2023/11/06 00:49:48;;;;;;;0.70;0.70;;;10.00;56.80;;;;;;5024711;28;20194;-83
2023/11/06 00:52:15;;;;;;;2.40;1.08;;;10.00;56.60;;;;;;5029990;28;20218;-83
2023/11/06 00:54:43;;;;;;;2.70;0.95;;;10.10;57.10;;;;;;5027943;28;20199;-83
2023/11/06 00:57:10;;;;;;;1.23;0.80;;;10.00;58.40;;;;;;5029504;28;20198;-83
2023/11/06 00:59:38;;;;;;;1.35;0.70;;;10.00;58.20;;;;;;5059450;28;20195;-85
2023/11/06 01:02:05;;;;;;;1.90;1.02;;;10.00;58.90;;;;;;5032639;28;20281;-83
2023/11/06 01:04:32;;;;;;;1.00;0.88;;;10.00;58.50;;;;;;5029883;28;20191;-85
2023/11/06 01:06:59;;;;;;;5.28;0.90;;;9.90;61.60;;;;;;5034289;28;20672;-83
2023/11/06 01:09:26;;;;;;;1.23;0.80;;;9.90;62.40;;;;;;5033475;28;20203;-83
2023/11/06 01:11:54;;;;;;;1.70;0.70;;;9.80;63.30;;;;;;5033519;28;20278;-84
2023/11/06 01:14:21;;;;;;;1.13;0.90;;;9.90;64.10;;;;;;5029257;28;20207;-83
2023/11/06 01:16:50;;;;;;;1.17;0.68;;;9.90;64.30;;;;;;5034022;28;20717;-84
2023/11/06 01:19:17;;;;;;;3.65;0.85;;;9.80;65.40;;;;;;5043436;28;20237;-83
2023/11/06 01:21:44;;;;;;;1.17;0.60;;;9.80;65.80;;;;;;5034331;28;20190;-83
2023/11/06 01:24:12;;;;;;;2.00;1.33;;;9.80;65.90;;;;;;5031937;28;20191;-83
2023/11/06 01:26:42;;;;;;;2.17;1.00;;;9.80;64.80;;;;;;5032490;28;20186;-83
2023/11/06 01:29:11;;;;;;;2.10;0.70;;;9.80;65.00;;;;;;5041417;28;20231;-83
2023/11/06 01:31:38;;;;;;;1.45;1.00;;;9.80;63.80;;;;;;5034025;28;20554;-84
2023/11/06 01:34:05;;;;;;;1.30;1.00;;;9.80;65.50;;;;;;5028488;28;20193;-83
2023/11/06 01:36:32;;;;;;;0.70;0.70;;;9.80;65.10;;;;;;5032771;28;20236;-84
2023/11/06 01:39:00;;;;;;;2.50;0.73;;;9.70;65.80;;;;;;5032968;28;20194;-83
2023/11/06 01:41:26;;;;;;;1.45;0.80;;;9.70;66.30;;;;;;5033959;28;20195;-83
2023/11/06 01:43:53;;;;;;;1.50;0.80;;;9.70;67.30;;;;;;5034085;28;20198;-83
2023/11/06 01:46:21;;;;;;;1.85;0.60;;;9.60;68.00;;;;;;5031610;28;20199;-83
2023/11/06 01:48:49;;;;;;;1.65;0.73;;;9.60;67.80;;;;;;5064884;28;20283;-83
2023/11/06 01:51:16;;;;;;;0.90;0.60;;;9.50;68.80;;;;;;5029709;28;20297;-83
2023/11/06 01:53:44;;;;;;;0.80;0.75;;;9.60;65.80;;;;;;5032197;28;20202;-83
2023/11/06 01:56:11;;;;;;;0.93;0.90;;;9.60;66.90;;;;;;5028818;28;20198;-84
2023/11/06 01:58:39;;;;;;;3.45;0.80;;;9.50;67.00;;;;;;5032172;28;20222;-84
2023/11/06 02:01:08;;;;;;;0.98;0.73;;;9.60;66.70;;;;;;5033613;28;20199;-83
2023/11/06 02:03:36;;;;;;;1.98;0.90;;;9.50;67.60;;;;;;5039866;28;20272;-83
2023/11/06 02:06:04;;;;;;;1.27;0.82;;;9.50;68.00;;;;;;5036959;28;20202;-84
2023/11/06 02:08:32;;;;;;;1.80;0.70;;;9.40;68.10;;;;;;5033078;28;20267;-83
2023/11/06 02:11:02;;;;;;;0.70;0.70;;;9.50;67.80;;;;;;5030108;28;20261;-85
2023/11/06 02:13:29;;;;;;;1.23;0.80;;;9.40;69.00;;;;;;5028365;28;20210;-83
2023/11/06 02:15:56;;;;;;;1.10;0.90;;;9.40;69.60;;;;;;5032511;28;20195;-83
2023/11/06 02:18:23;;;;;;;1.23;0.60;;;9.50;67.60;;;;;;5031913;28;20639;-83
2023/11/06 02:20:55;;;;;;;1.85;0.80;;;9.50;68.30;;;;;;5035939;28;20211;-83
2023/11/06 02:23:24;;;;;;;2.30;0.60;;;9.50;68.10;;;;;;5026698;28;20188;-83
2023/11/06 02:25:51;;;;;;;3.10;0.77;;;9.40;69.70;;;;;;5033128;28;20217;-83
2023/11/06 02:28:18;;;;;;;2.03;0.90;;;9.30;72.60;;;;;;5031722;28;20221;-83
2023/11/06 02:30:45;;;;;;;2.15;0.75;;;9.30;72.00;;;;;;5027213;28;20658;-84
2023/11/06 02:33:12;;;;;;;1.25;0.80;;;9.30;74.20;;;;;;5030513;28;20203;-83
2023/11/06 02:35:39;;;;;;;1.77;0.73;;;9.30;74.20;;;;;;5032089;28;20540;-84
2023/11/06 02:38:06;;;;;;;1.67;0.90;;;9.30;74.20;;;;;;5032026;28;20219;-83
2023/11/06 02:40:35;;;;;;;2.10;0.70;;;9.30;74.20;;;;;;5026757;28;20233;-83
2023/11/06 02:43:02;;;;;;;1.45;0.80;;;9.30;74.20;;;;;;5030796;28;20206;-83
2023/11/06 02:45:29;;;;;;;2.53;1.00;;;9.30;74.20;;;;;;5027697;28;20191;-84
2023/11/06 02:47:56;;;;;;;0.70;0.70;;;9.40;74.30;;;;;;5032089;28;20609;-84
2023/11/06 02:50:26;;;;;;;2.80;1.10;;;9.40;74.30;;;;;;5013235;28;20287;-83
2023/11/06 02:52:53;;;;;;;1.65;1.17;;;9.40;74.30;;;;;;5029036;28;20288;-83
2023/11/06 02:55:20;;;;;;;1.25;0.80;;;9.30;74.20;;;;;;5031896;28;20281;-83
2023/11/06 02:57:48;;;;;;;1.40;0.82;;;9.30;75.70;;;;;;5032690;28;20198;-83
2023/11/06 03:00:16;;;;;;;2.58;1.00;;;9.20;76.50;;;;;;5031483;28;20194;-83
2023/11/06 03:02:43;;;;;;;1.25;0.70;;;9.20;77.10;;;;;;5028325;28;20194;-83
2023/11/06 03:05:11;;;;;;;1.90;0.90;;;9.10;77.90;;;;;;5032356;28;20570;-83
2023/11/06 03:07:40;;;;;;;1.02;0.77;;;9.10;78.50;;;;;;5034370;28;20222;-83
2023/11/06 03:10:08;;;;;;;1.05;0.80;;;9.00;79.10;;;;;;5031018;28;20194;-83
2023/11/06 03:12:35;;;;;;;3.25;1.10;;;9.00;79.90;;;;;;5032371;28;20226;-84
2023/11/06 03:15:05;;;;;;;2.83;0.95;;;9.00;80.00;;;;;;5027694;28;20281;-83
2023/11/06 03:17:32;;;;;;;1.52;1.05;;;9.00;80.80;;;;;;5030387;28;20568;-83
2023/11/06 03:19:59;;;;;;;2.20;0.88;;;9.10;80.60;;;;;;5031819;28;20198;-84
2023/11/06 03:22:25;;;;;;;2.28;1.00;;;9.10;80.50;;;;;;5029865;28;20226;-84
2023/11/06 03:24:52;;;;;;;1.00;0.90;;;9.00;79.90;;;;;;5030375;28;20205;-83
2023/11/06 03:27:20;;;;;;;1.30;0.80;;;9.00;80.50;;;;;;5024516;28;20198;-83
2023/11/06 03:29:47;;;;;;;0.82;0.70;;;9.10;79.50;;;;;;5034981;28;20229;-83
2023/11/06 03:32:16;;;;;;;2.17;0.95;;;9.10;79.40;;;;;;5029765;28;20640;-83
2023/11/06 03:34:44;;;;;;;2.03;0.80;;;9.10;79.50;;;;;;5029458;28;20194;-83
2023/11/06 03:37:11;;;;;;;2.08;0.85;;;9.10;79.50;;;;;;5030908;28;20264;-83
2023/11/06 03:39:40;;;;;;;3.35;0.80;;;9.00;79.80;;;;;;5031956;28;20193;-83
2023/11/06 03:42:07;;;;;;;2.33;1.10;;;9.00;79.70;;;;;;5061098;28;20198;-84
2023/11/06 03:44:36;;;;;;;2.45;0.98;;;9.00;80.30;;;;;;5029522;28;20221;-83
2023/11/06 03:47:03;;;;;;;2.42;0.90;;;9.00;80.10;;;;;;5030428;28;20209;-83
2023/11/06 03:49:31;;;;;;;2.17;0.80;;;9.00;80.20;;;;;;5027515;28;20217;-83
2023/11/06 03:51:58;;;;;;;1.85;0.80;;;9.00;80.30;;;;;;5033377;28;20221;-85
2023/11/06 03:54:26;;;;;;;1.63;1.05;;;9.00;80.50;;;;;;5027853;28;20256;-83
2023/11/06 03:56:53;;;;;;;3.75;1.00;;;9.00;80.80;;;;;;5028277;28;20195;-83
2023/11/06 03:59:20;;;;;;;4.05;1.17;;;8.90;80.80;;;;;;5029628;28;20191;-83
2023/11/06 04:01:48;;;;;;;1.10;0.70;;;8.80;82.80;;;;;;5030146;28;20199;-83
2023/11/06 04:04:14;;;;;;;0.77;0.77;;;8.80;82.50;;;;;;5034850;28;20353;-83
2023/11/06 04:06:43;;;;;;;6.65;0.90;;;8.70;82.80;;;;;;5033797;28;20844;-83
2023/11/06 04:09:10;;;;;;;1.70;0.82;;;8.70;83.30;;;;;;5028881;28;20222;-83
2023/11/06 04:11:37;;;;;;;1.83;0.73;;;8.70;82.80;;;;;;5030149;28;20553;-84
2023/11/06 04:14:04;;;;;;;1.30;1.00;;;8.80;81.80;;;;;;5027051;28;20210;-83
2023/11/06 04:16:31;;;;;;;3.47;1.10;;;8.90;81.20;;;;;;5026242;28;20187;-83
2023/11/06 04:18:59;;;;;;;1.75;1.00;;;8.90;80.90;;;;;;5024047;28;20203;-83
2023/11/06 04:21:26;;;;;;;2.35;0.95;;;8.90;80.70;;;;;;5031170;28;20194;-83
2023/11/06 04:23:54;;;;;;;2.42;1.00;;;8.80;80.70;;;;;;5032300;28;20198;-83
2023/11/06 04:26:21;;;;;;;2.10;1.00;;;8.90;80.20;;;;;;5031548;28;20194;-83
2023/11/06 04:28:48;;;;;;;1.30;0.77;;;8.90;80.10;;;;;;5029547;28;20280;-83
2023/11/06 04:31:15;;;;;;;1.38;0.82;;;8.90;79.70;;;;;;5034035;28;20194;-83
2023/11/06 04:33:42;;;;;;;1.73;0.82;;;9.00;79.90;;;;;;5028160;28;20439;-83
2023/11/06 04:36:09;;;;;;;1.92;0.90;;;8.90;80.40;;;;;;5030893;28;20285;-83
2023/11/06 04:38:36;;;;;;;3.90;1.13;;;8.80;80.50;;;;;;5035074;28;20194;-83
2023/11/06 04:41:05;;;;;;;2.88;0.90;;;8.80;81.10;;;;;;5032107;28;20196;-83
2023/11/06 04:43:32;;;;;;;1.98;0.80;;;8.90;79.90;;;;;;5032070;28;20190;-83
2023/11/06 04:45:59;;;;;;;2.33;1.00;;;8.90;80.60;;;;;;5027430;28;20277;-84
2023/11/06 04:48:26;;;;;;;1.25;0.70;;;8.80;80.70;;;;;;5031113;28;20214;-83
2023/11/06 04:50:53;;;;;;;3.25;0.93;;;8.90;80.50;;;;;;5030096;28;20297;-83
2023/11/06 04:53:21;;;;;;;1.80;0.90;;;8.80;81.20;;;;;;5030110;28;20194;-85
2023/11/06 04:55:48;;;;;;;1.13;0.75;;;8.70;81.80;;;;;;5029183;28;20277;-83
2023/11/06 04:58:16;;;;;;;1.27;0.85;;;8.60;82.80;;;;;;5030552;28;20289;-83
2023/11/06 05:00:43;;;;;;;3.17;0.80;;;8.50;83.30;;;;;;5019718;28;20202;-84
2023/11/06 05:03:10;;;;;;;2.97;1.00;;;8.50;84.20;;;;;;5030581;28;20264;-83
2023/11/06 05:05:37;;;;;;;1.35;0.75;;;8.50;84.20;;;;;;5030715;28;20206;-83
2023/11/06 05:08:05;;;;;;;2.45;0.90;;;8.40;84.40;;;;;;5029597;28;20199;-83
2023/11/06 05:10:31;;;;;;;2.15;0.93;;;8.40;84.40;;;;;;5030645;28;20301;-83
2023/11/06 05:12:58;;;;;;;2.38;0.90;;;8.40;84.60;;;;;;5029324;28;20824;-83
2023/11/06 05:15:27;;;;;;;2.22;0.95;;;8.40;85.20;;;;;;5029350;28;20202;-83
2023/11/06 05:17:54;;;;;;;1.48;1.00;;;8.40;85.50;;;;;;5027580;28;20659;-83
2023/11/06 05:20:21;;;;;;;1.90;0.80;;;8.40;84.90;;;;;;5030326;28;20194;-83
2023/11/06 05:22:48;;;;;;;2.20;0.90;;;8.50;84.70;;;;;;5028570;28;20656;-84
2023/11/06 05:25:15;;;;;;;2.90;1.00;;;8.50;84.60;;;;;;5062008;28;20713;-82
2023/11/06 05:27:42;;;;;;;1.40;0.90;;;8.50;84.30;;;;;;5028985;28;20203;-84
2023/11/06 05:30:10;;;;;;;2.83;1.05;;;8.60;83.20;;;;;;5027992;28;20214;-83
2023/11/06 05:32:38;;;;;;;2.10;1.00;;;8.50;85.10;;;;;;5029478;28;20202;-83
2023/11/06 05:35:06;;;;;;;7.38;1.50;;;8.50;85.50;;;;;;5025987;28;20191;-82
2023/11/06 05:37:33;;;;;;;1.52;1.05;;;8.50;85.00;;;;;;5028550;28;20195;-82
2023/11/06 05:40:00;;;;;;;4.82;1.20;;;8.50;85.30;;;;;;5012413;28;20317;-82
2023/11/06 05:42:26;;;;;;;2.08;1.10;;;8.50;85.50;;;;;;5031371;28;20198;-82
2023/11/06 05:44:53;;;;;;;2.17;0.93;;;8.50;85.90;;;;;;5035272;28;20191;-83
2023/11/06 05:47:22;;;;;;;3.33;1.20;;;8.50;85.80;;;;;;5030827;28;20217;-83
2023/11/06 05:49:50;;;;;;;4.20;1.05;;;8.50;86.20;;;;;;5033260;28;20222;-83
2023/11/06 05:52:17;;;;;;;6.25;4.05;;;8.50;85.00;;;;;;5016621;28;20241;-84
2023/11/06 05:54:43;;;;;;;2.28;1.00;;;8.40;85.90;;;;;;5026662;28;20187;-82
2023/11/06 05:57:10;;;;;;;2.60;1.17;;;8.30;87.10;;;;;;5033811;28;20193;-85
2023/11/06 05:59:38;;;;;;;3.20;1.10;;;8.40;86.30;;;;;;5033415;28;20210;-82
2023/11/06 06:02:05;;;;;;;2.90;1.23;;;8.30;87.00;;;;;;5029879;28;20195;-82
2023/11/06 06:04:32;;;;;;;1.70;1.00;;;8.30;88.60;;;;;;5033690;28;20198;-82
2023/11/06 06:07:00;;;;;;;1.73;0.82;;;8.30;89.00;;;;;;5030129;28;20654;-88
2023/11/06 06:09:27;;;;;;;1.70;1.20;;;8.20;89.90;;;;;;5029233;28;20663;-82
2023/11/06 06:11:54;;;;;;;1.48;1.17;;;8.20;90.10;;;;;;5030214;28;20193;-83
2023/11/06 06:14:21;;;;;;;2.42;1.20;;;8.20;90.00;;;;;;5031354;28;20240;-83
2023/11/06 06:16:49;;;;;;;2.83;1.10;;;8.30;90.00;;;;;;5031952;28;20201;-85
2023/11/06 06:19:16;;;;;;;2.45;1.10;;;8.30;89.50;;;;;;5029999;28;20194;-85
2023/11/06 06:21:43;;;;;;;4.63;1.00;;;8.20;90.00;;;;;;5033631;28;20194;-88
2023/11/06 06:24:12;;;;;;;4.85;1.15;;;8.30;90.20;;;;;;5031259;28;20635;-83
2023/11/06 06:26:39;;;;;;;4.93;1.25;;;8.20;90.20;;;;;;5029934;28;20187;-83
2023/11/06 06:29:06;;;;;;;2.28;1.02;;;8.20;90.30;;;;;;5031558;28;20215;-84
2023/11/06 06:31:33;;;;;;;1.90;1.13;;;8.10;90.30;;;;;;5033235;28;20944;-83
2023/11/06 06:34:00;;;;;;;3.88;1.20;;;8.10;90.30;;;;;;5032313;28;20268;-83
2023/11/06 06:36:27;;;;;;;1.83;1.17;;;8.10;90.30;;;;;;5033732;28;20212;-83
2023/11/06 06:38:54;;;;;;;4.13;1.15;;;8.10;90.30;;;;;;5030766;28;20194;-83
2023/11/06 06:41:22;;;;;;;1.33;1.10;;;8.10;90.70;;;;;;5032556;28;20778;-83
2023/11/06 06:43:49;;;;;;;3.72;1.10;;;8.10;91.00;;;;;;5031091;28;20226;-83
2023/11/06 06:46:16;;;;;;;2.95;1.17;;;8.10;91.20;;;;;;5035100;28;20191;-83
2023/11/06 06:48:44;;;;;;;2.05;1.13;;;8.10;91.10;;;;;;5036967;28;20640;-83
2023/11/06 06:51:11;;;;;;;3.22;1.10;;;8.20;90.60;;;;;;5029695;28;20268;-83
2023/11/06 06:53:39;;;;;;;3.38;1.23;;;8.20;90.90;;;;;;5032279;28;20639;-83
2023/11/06 06:56:06;;;;;;;1.80;1.25;;;8.20;91.10;;;;;;5031539;28;20302;-83
2023/11/06 06:58:34;;;;;;;3.35;1.38;;;8.20;91.20;;;;;;5032104;28;20210;-83
2023/11/06 07:01:01;;;;;;;4.68;1.17;;;8.20;90.90;;;;;;5028225;28;20201;-83
2023/11/06 07:03:29;;;;;;;3.47;1.40;;;8.30;90.80;;;;;;5031015;28;20213;-83
2023/11/06 07:05:56;;;;;;;3.35;1.20;;;8.30;90.80;;;;;;5031067;28;20203;-83
2023/11/06 07:08:23;;;;;;;3.85;1.45;;;8.40;90.40;;;;;;5029656;28;20264;-83
2023/11/06 07:10:49;;;;;;;1.67;1.42;;;8.50;90.40;;;;;;5030050;28;20227;-83
2023/11/06 07:13:17;;;;;;;2.80;1.10;;;8.50;90.60;;;;;;5031476;28;20644;-83
2023/11/06 07:15:45;;;;;;;2.10;1.30;;;8.50;90.40;;;;;;5029073;28;20210;-83
2023/11/06 07:18:13;;;;;;;2.38;1.20;;;8.60;90.40;;;;;;5035532;28;20197;-83
2023/11/06 07:20:39;;;;;;;3.15;1.45;;;8.70;90.40;;;;;;5028305;28;20283;-83
2023/11/06 07:23:06;;;;;;;2.22;1.05;;;8.70;89.80;;;;;;5025265;28;20562;-83
2023/11/06 07:25:33;;;;;;;3.00;1.15;;;8.80;89.90;;;;;;5032279;28;20871;-83
2023/11/06 07:28:00;;;;;;;1.48;1.08;;;8.90;89.30;;;;;;5031694;28;20277;-83
2023/11/06 07:30:27;;;;;;;3.55;1.40;;;9.00;87.60;;;;;;5027974;28;20236;-83
2023/11/06 07:32:55;;;;;;;2.08;1.30;;;9.10;87.90;;;;;;5031413;28;20206;-83
2023/11/06 07:35:22;;;;;;;4.68;1.60;;;9.10;87.20;;;;;;5030705;28;20256;-83
2023/11/06 07:37:49;;;;;;;5.95;1.38;;;9.10;87.10;;;;;;5032340;28;20205;-83
2023/11/06 07:40:16;;;;;;;1.23;1.05;;;9.20;86.20;;;;;;5056887;28;20253;-83
2023/11/06 07:42:42;;;;;;;3.67;1.10;;;9.30;85.50;;;;;;5032700;28;20274;-83
2023/11/06 07:45:10;;;;;;;1.05;0.80;;;9.40;83.60;;;;;;5031764;28;20819;-83
2023/11/06 07:47:37;;;;;;;1.90;1.17;;;9.50;84.00;;;;;;5037210;28;20202;-83
2023/11/06 07:50:06;;;;;;;1.75;1.08;;;9.50;84.30;;;;;;5032890;28;20256;-83
2023/11/06 07:52:33;;;;;;;2.28;1.05;;;9.60;83.50;;;;;;5035100;28;20210;-83
2023/11/06 07:55:01;;;;;;;3.22;1.45;;;9.70;83.50;;;;;;5036784;28;20207;-83
2023/11/06 07:57:28;;;;;;;1.92;0.95;;;9.70;82.40;;;;;;5045276;28;20190;-83
2023/11/06 07:59:55;;;;;;;2.35;1.08;;;9.80;82.20;;;;;;5057098;28;20228;-82
2023/11/06 08:02:22;;;;;;;3.92;1.15;;;9.90;80.40;;;;;;5055742;28;20198;-82
2023/11/06 08:04:49;;;;;;;2.80;1.05;;;10.10;79.60;;;;;;5033872;28;20218;-83
2023/11/06 08:07:17;;;;;;;1.67;1.20;;;10.20;78.10;;;;;;5032179;28;20199;-83
2023/11/06 08:09:44;;;;;;;5.10;1.50;;;10.20;78.50;;;;;;5033678;28;20305;-83
2023/11/06 08:12:13;;;;;;;2.40;1.30;;;10.30;78.10;;;;;;5033274;28;20191;-83
2023/11/06 08:14:40;;;;;;;2.67;1.10;;;10.50;73.60;;;;;;5031114;28;20202;-83
2023/11/06 08:17:07;;;;;;;1.92;0.98;;;10.60;73.70;;;;;;5029625;28;20721;-82
2023/11/06 08:19:40;;;;;;;2.58;1.20;;;10.70;73.80;;;;;;5030573;28;20972;-83
2023/11/06 08:22:08;;;;;;;1.85;1.25;;;10.70;73.90;;;;;;5030692;28;20240;-83
2023/11/06 08:24:37;;;;;;;2.88;1.20;;;10.80;74.00;;;;;;5031410;28;20201;-83
2023/11/06 08:27:05;;;;;;;3.53;1.20;;;11.00;68.60;;;;;;5031849;28;20202;-83
2023/11/06 08:29:33;;;;;;;2.90;1.08;;;11.20;66.20;;;;;;5028323;28;20217;-83
2023/11/06 08:32:01;;;;;;;2.83;1.33;;;11.40;64.00;;;;;;5028573;28;20201;-84
2023/11/06 08:34:28;;;;;;;3.03;1.10;;;11.60;65.00;;;;;;5020484;28;20277;-83
2023/11/06 08:36:55;;;;;;;2.47;1.10;;;11.70;62.20;;;;;;5031972;28;20202;-83
2023/11/06 08:39:22;;;;;;;1.08;0.88;;;11.90;60.70;;;;;;5029036;28;20202;-83
2023/11/06 08:41:51;;;;;;;3.08;1.20;;;12.10;57.20;;;;;;5031545;28;20213;-83
2023/11/06 08:44:18;;;;;;;1.98;1.10;;;12.60;55.20;;;;;;5031052;28;20556;-83
2023/11/06 08:46:45;;;;;;;2.38;1.17;;;13.40;47.40;;;;;;5031135;28;20241;-83
2023/11/06 08:49:13;;;;;;;3.28;1.20;;;14.20;37.70;;;;;;5030973;28;20658;-83
2023/11/06 08:51:40;;;;;;;2.72;1.30;;;14.80;35.60;;;;;;5030664;28;20218;-83
2023/11/06 08:54:08;;;;;;;2.53;1.00;;;15.00;31.70;;;;;;5038304;28;20186;-83
2023/11/06 08:56:35;;;;;;;27.73;21.63;;;15.40;28.20;;;;;;5031908;28;20190;-83
2023/11/06 08:59:03;;;;;;;1.33;1.05;;;15.70;28.40;;;;;;5031644;28;20199;-83
2023/11/06 09:01:30;;;;;;;2.58;0.95;;;16.00;26.10;;;;;;5035202;28;20214;-83
2023/11/06 09:03:57;;;;;;;2.03;1.13;;;16.80;25.10;;;;;;5023036;28;20195;-83
2023/11/06 09:06:24;;;;;;;2.55;1.05;;;17.40;20.50;;;;;;5031488;28;20240;-84
2023/11/06 09:08:51;;;;;;;2.33;1.30;;;17.60;19.20;;;;;;5030949;28;20207;-84
2023/11/06 09:11:18;;;;;;;2.30;1.30;;;17.60;18.80;;;;;;5033666;28;20299;-84
2023/11/06 09:13:45;;;;;;;2.28;1.10;;;17.60;19.60;;;;;;5031913;28;20221;-84
2023/11/06 09:16:13;;;;;;;1.45;1.00;;;17.90;19.30;;;;;;5030622;28;20198;-84
2023/11/06 09:18:40;;;;;;;2.97;1.00;;;17.60;18.80;;;;;;5026033;28;20614;-84
2023/11/06 09:21:13;;;;;;;2.45;1.20;;;17.80;19.40;;;;;;5033642;28;20210;-84
2023/11/06 09:23:40;;;;;;;3.42;1.05;;;18.30;17.90;;;;;;5033660;28;20218;-84
2023/11/06 09:26:08;;;;;;;3.13;1.10;;;18.20;16.90;;;;;;5037239;28;20657;-84
2023/11/06 09:28:35;;;;;;;2.35;1.00;;;18.40;17.20;;;;;;5035477;28;20213;-84
2023/11/06 09:31:04;;;;;;;1.70;1.00;;;18.20;17.30;;;;;;5033323;28;20883;-84
2023/11/06 09:33:32;;;;;;;2.15;1.20;;;18.30;17.10;;;;;;5032632;28;20539;-84
2023/11/06 09:35:59;;;;;;;2.28;1.10;;;18.60;16.10;;;;;;5028228;28;20207;-84
2023/11/06 09:38:26;;;;;;;4.18;1.33;;;18.80;15.00;;;;;;5040881;28;20241;-84
2023/11/06 09:40:54;;;;;;;3.05;1.00;;;18.90;14.70;;;;;;5033057;28;20201;-84
2023/11/06 09:43:21;;;;;;;2.95;1.00;;;18.50;15.20;;;;;;5034175;28;20209;-84
2023/11/06 09:45:48;;;;;;;2.22;1.13;;;18.20;15.80;;;;;;5035833;28;20207;-84
2023/11/06 09:48:19;;;;;;;1.20;1.10;;;18.20;15.90;;;;;;5033414;28;20549;-84
2023/11/06 09:50:50;;;;;;;1.42;1.20;;;18.30;16.10;;;;;;5035627;28;20222;-84
2023/11/06 09:53:17;;;;;;;3.03;1.00;;;18.60;15.70;;;;;;5036224;28;20198;-84
2023/11/06 09:55:46;;;;;;;1.23;1.10;;;18.20;15.20;;;;;;5035258;28;20190;-84
2023/11/06 09:58:13;;;;;;;3.25;1.10;;;18.00;16.00;;;;;;5042770;28;20244;-83
2023/11/06 10:00:40;;;;;;;1.75;1.13;;;18.10;15.60;;;;;;5034570;28;20194;-84
2023/11/06 10:03:07;;;;;;;2.47;1.10;;;17.90;16.20;;;;;;5033636;28;20251;-84
2023/11/06 10:05:34;;;;;;;0.98;0.88;;;18.00;15.70;;;;;;5028982;28;20191;-83
2023/11/06 10:08:04;;;;;;;1.25;0.90;;;17.80;16.10;;;;;;5030930;28;20570;-83
2023/11/06 10:10:32;;;;;;;2.20;1.10;;;17.60;16.40;;;;;;5033730;28;20211;-83
2023/11/06 10:13:04;;;;;;;1.77;1.00;;;17.30;16.60;;;;;;5032923;28;20652;-84
2023/11/06 10:15:32;;;;;;;2.63;1.10;;;17.30;16.80;;;;;;5028705;28;20205;-84
2023/11/06 10:18:12;;;;;;;3.60;1.10;;;17.30;16.60;;;;;;5040225;28;20194;-84
2023/11/06 10:20:41;;;;;;;1.08;1.08;;;17.50;16.80;;;;;;5031724;28;20197;-84
2023/11/06 10:23:10;;;;;;;2.25;1.25;;;18.00;14.90;;;;;;5031856;28;20209;-84
2023/11/06 10:25:40;;;;;;;1.90;1.10;;;18.30;15.00;;;;;;5030831;28;20199;-84
2023/11/06 10:28:18;;;;;;;1.27;1.10;;;18.00;16.60;;;;;;5033544;28;20336;-84
2023/11/06 10:30:49;;;;;;;4.38;1.10;;;17.90;17.00;;;;;;5032874;28;20209;-84
2023/11/06 10:33:17;;;;;;;1.58;0.82;;;17.90;17.50;;;;;;5032450;28;20213;-84
2023/11/06 10:35:44;;;;;;;1.33;0.90;;;17.80;15.90;;;;;;5036511;28;20267;-84
2023/11/06 10:41:25;;;;;;;1.00;0.90;;;17.40;16.60;;;;;;5132647;27;20690;-84
2023/11/06 10:43:52;;;;;;;1.90;1.00;;;17.30;17.20;;;;;;5137729;27;20187;-84
2023/11/06 10:46:21;;;;;;;1.77;0.98;;;17.40;15.40;;;;;;5128468;27;20690;-84
2023/11/06 10:48:55;;;;;;;2.17;0.98;;;17.40;15.60;;;;;;5132346;27;20202;-85
2023/11/06 10:51:23;;;;;;;1.85;1.10;;;17.20;16.30;;;;;;5133138;27;20266;-84
2023/11/06 10:53:51;;;;;;;2.08;1.02;;;16.90;17.50;;;;;;5126752;27;20199;-84
2023/11/06 10:56:20;;;;;;;1.48;0.70;;;16.40;18.00;;;;;;5123134;27;20191;-84
2023/11/06 10:58:47;;;;;;;3.00;1.10;;;16.20;18.30;;;;;;5120424;27;20187;-84
2023/11/06 11:01:15;;;;;;;1.45;0.82;;;16.10;18.30;;;;;;5129192;27;20561;-84
2023/11/06 11:03:44;;;;;;;0.88;0.70;;;15.80;19.90;;;;;;5129504;27;20196;-84
2023/11/06 11:06:11;;;;;;;1.15;0.90;;;15.60;20.30;;;;;;5134298;27;20199;-84
2023/11/06 11:08:38;;;;;;;1.35;0.80;;;15.50;20.70;;;;;;5131124;27;20192;-84
2023/11/06 11:11:08;;;;;;;1.08;0.70;;;15.40;20.40;;;;;;5126859;27;20210;-83
2023/11/06 11:13:37;;;;;;;1.17;0.85;;;15.50;19.80;;;;;;5159493;27;20176;-83
2023/11/06 11:16:38;;;;;;;0.75;0.70;;;15.60;20.40;;;;;;5151221;27;20185;-84
2023/11/06 11:19:21;;;;;;;1.48;0.90;;;15.50;19.80;;;;;;5118959;27;20191;-84
2023/11/06 11:22:05;;;;;;;1.48;0.82;;;15.20;19.60;;;;;;5128550;27;20272;-84
2023/11/06 11:24:51;;;;;;;0.93;0.60;;;14.90;20.80;;;;;;5128767;27;20651;-83
2023/11/06 11:27:22;;;;;;;1.10;0.70;;;14.90;20.90;;;;;;5131229;27;20596;-83
2023/11/06 11:30:12;;;;;;;1.98;0.77;;;14.80;21.90;;;;;;5134921;27;20206;-84
2023/11/06 11:32:49;;;;;;;1.52;1.00;;;14.80;21.60;;;;;;5132980;27;20207;-83
2023/11/06 11:35:47;;;;;;;1.70;0.90;;;14.80;21.70;;;;;;5128245;27;20599;-84
2023/11/06 11:38:21;;;;;;;0.98;0.77;;;14.70;23.10;;;;;;5116270;28;20192;-84
2023/11/06 11:41:10;;;;;;;1.48;0.80;;;14.50;21.80;;;;;;5118746;27;20692;-84
2023/11/06 11:43:41;;;;;;;1.45;0.95;;;14.30;23.40;;;;;;5130505;27;20191;-84
2023/11/06 11:46:44;;;;;;;1.60;1.10;;;14.20;23.60;;;;;;5136057;27;20199;-84
2023/11/06 11:49:12;;;;;;;2.00;0.88;;;14.30;23.60;;;;;;5134346;27;20199;-84
2023/11/06 11:51:49;;;;;;;3.85;0.90;;;14.30;24.20;;;;;;5124518;27;20212;-84
2023/11/06 11:54:28;;;;;;;2.10;0.80;;;14.50;24.60;;;;;;5114838;27;20208;-84
2023/11/06 11:56:56;;;;;;;2.05;1.10;;;14.50;22.20;;;;;;5111875;27;20221;-84
2023/11/06 11:59:23;;;;;;;1.00;0.90;;;14.50;23.00;;;;;;5114089;27;20219;-83
2023/11/06 12:01:51;;;;;;;1.73;0.93;;;14.60;24.40;;;;;;5122329;27;20199;-83
2023/11/06 12:04:22;;;;;;;1.75;1.13;;;14.50;23.00;;;;;;5109441;28;20192;-84
2023/11/06 12:06:49;;;;;;;0.88;0.80;;;14.50;22.60;;;;;;5108073;28;20507;-84
2023/11/06 12:09:17;;;;;;;2.13;1.20;;;14.70;22.70;;;;;;5105726;27;20594;-84
2023/11/06 12:11:47;;;;;;;2.25;0.73;;;14.80;22.50;;;;;;5109662;27;20207;-84
2023/11/06 12:14:14;;;;;;;2.10;1.00;;;14.90;22.00;;;;;;5113252;27;20636;-84
2023/11/06 12:16:49;;;;;;;0.70;0.70;;;14.90;22.20;;;;;;5112040;27;20192;-83
2023/11/06 12:19:16;;;;;;;2.17;1.00;;;14.90;22.80;;;;;;5108961;27;20666;-84
2023/11/06 12:21:45;;;;;;;0.63;0.63;;;14.80;23.20;;;;;;5119103;27;20187;-84
2023/11/06 12:24:12;;;;;;;3.03;0.80;;;14.70;24.20;;;;;;5108357;27;20707;-84
2023/11/06 12:26:52;;;;;;;3.13;1.00;;;14.70;23.10;;;;;;5106897;27;20204;-85
2023/11/06 12:29:26;;;;;;;1.08;0.73;;;14.60;23.60;;;;;;5111227;27;20203;-85
2023/11/06 12:31:54;;;;;;;1.98;1.13;;;14.60;24.20;;;;;;5114056;27;20199;-85
2023/11/06 12:34:21;;;;;;;0.93;0.80;;;14.60;22.90;;;;;;5115006;27;20192;-85
2023/11/06 12:36:59;;;;;;;1.30;0.70;;;14.60;23.60;;;;;;5118429;27;20264;-85
2023/11/06 12:39:28;;;;;;;1.23;0.90;;;14.60;23.70;;;;;;5111729;27;20204;-84
2023/11/06 12:42:00;;;;;;;4.70;1.02;;;14.60;23.00;;;;;;5116690;27;20659;-84
2023/11/06 12:44:37;;;;;;;0.75;0.75;;;14.70;23.30;;;;;;5113090;27;20282;-83
2023/11/06 12:47:05;;;;;;;2.10;0.80;;;14.60;23.30;;;;;;5109204;28;20214;-83
2023/11/06 12:49:52;;;;;;;2.42;0.80;;;14.50;22.40;;;;;;5112347;27;20203;-83
2023/11/06 12:52:24;;;;;;;1.55;1.00;;;14.50;22.50;;;;;;5111123;27;20702;-83
2023/11/06 12:54:52;;;;;;;1.45;0.82;;;14.50;22.10;;;;;;5098488;27;20200;-83
2023/11/06 12:57:19;;;;;;;1.15;0.85;;;14.50;21.30;;;;;;5110672;27;20290;-84
2023/11/06 12:59:47;;;;;;;1.38;0.77;;;14.50;21.70;;;;;;5104689;27;20226;-83
2023/11/06 13:02:14;;;;;;;0.80;0.80;;;14.50;22.40;;;;;;5112189;27;20717;-84